Malatya/Erhac, Turkey
Current Conditions -  °F | °C
As of 7:20 PM on Friday 21 Nov 2014 (Local Time) from LTAT Reporting Station
Light Rain Light Rain  
Wind Chill: 42°   Ceiling: 1800
Heat Index: 46°   Visibility: 2.5mi
Dew Point: 45°   Wind: 9mph
Humidity: 93%   Direction: 360°N
Pressure: 29.88"   Gusts: NA
Location:  38.43°N, 38.08°E
Report Text: LTAT 211620Z 36008KT 4000 -RA BR BKN018 OVC033 08/07 Q1012 NOSIG
Loading
Personal Weather Stations






























Interactive Weather Map New forecast layout! Learn more

10-Day Weather Forecast

Advertisements
Track Severe Weather on mobile